sensor_id;sensor_type;location;lat;lon;timestamp;P1;durP1;ratioP1;P2;durP2;ratioP2
22881;SDS011;11608;50.894;5.296;2023-04-24T00:05:07;29.70;;;27.27;;
22881;SDS011;11608;50.894;5.296;2023-04-24T00:11:01;31.33;;;28.67;;
22881;SDS011;11608;50.894;5.296;2023-04-24T00:13:51;31.70;;;28.90;;
22881;SDS011;11608;50.894;5.296;2023-04-24T00:16:37;29.38;;;27.02;;
22881;SDS011;11608;50.894;5.296;2023-04-24T00:19:12;29.40;;;26.80;;
22881;SDS011;11608;50.894;5.296;2023-04-24T00:21:57;31.40;;;28.23;;
22881;SDS011;11608;50.894;5.296;2023-04-24T00:24:46;30.10;;;27.40;;
22881;SDS011;11608;50.894;5.296;2023-04-24T00:27:33;32.70;;;30.00;;
22881;SDS011;11608;50.894;5.296;2023-04-24T00:30:12;32.10;;;29.30;;
22881;SDS011;11608;50.894;5.296;2023-04-24T00:32:45;33.78;;;31.00;;
22881;SDS011;11608;50.894;5.296;2023-04-24T00:35:42;32.40;;;29.50;;
22881;SDS011;11608;50.894;5.296;2023-04-24T00:38:13;32.58;;;29.50;;
22881;SDS011;11608;50.894;5.296;2023-04-24T00:43:46;31.83;;;28.85;;
22881;SDS011;11608;50.894;5.296;2023-04-24T00:46:23;34.00;;;31.05;;
22881;SDS011;11608;50.894;5.296;2023-04-24T00:49:13;33.58;;;30.42;;
22881;SDS011;11608;50.894;5.296;2023-04-24T00:54:45;33.05;;;29.77;;
22881;SDS011;11608;50.894;5.296;2023-04-24T00:57:20;33.63;;;30.38;;
22881;SDS011;11608;50.894;5.296;2023-04-24T00:59:54;32.38;;;29.33;;
22881;SDS011;11608;50.894;5.296;2023-04-24T01:02:40;32.80;;;29.63;;
22881;SDS011;11608;50.894;5.296;2023-04-24T01:05:13;32.75;;;29.60;;
22881;SDS011;11608;50.894;5.296;2023-04-24T01:07:45;34.00;;;30.80;;
22881;SDS011;11608;50.894;5.296;2023-04-24T01:10:16;33.78;;;30.83;;
22881;SDS011;11608;50.894;5.296;2023-04-24T01:13:13;31.23;;;28.17;;
22881;SDS011;11608;50.894;5.296;2023-04-24T01:15:42;35.35;;;30.30;;
22881;SDS011;11608;50.894;5.296;2023-04-24T01:21:12;33.55;;;30.27;;
22881;SDS011;11608;50.894;5.296;2023-04-24T01:23:57;35.60;;;32.22;;
22881;SDS011;11608;50.894;5.296;2023-04-24T01:29:26;35.97;;;32.47;;
22881;SDS011;11608;50.894;5.296;2023-04-24T01:31:55;32.88;;;29.60;;
22881;SDS011;11608;50.894;5.296;2023-04-24T01:34:28;32.33;;;29.50;;
22881;SDS011;11608;50.894;5.296;2023-04-24T01:39:33;33.13;;;30.08;;
22881;SDS011;11608;50.894;5.296;2023-04-24T01:42:06;34.88;;;31.77;;
22881;SDS011;11608;50.894;5.296;2023-04-24T01:45:03;34.50;;;31.38;;
22881;SDS011;11608;50.894;5.296;2023-04-24T01:47:46;33.42;;;30.35;;
22881;SDS011;11608;50.894;5.296;2023-04-24T01:50:15;33.05;;;30.00;;
22881;SDS011;11608;50.894;5.296;2023-04-24T01:52:41;34.70;;;31.27;;
22881;SDS011;11608;50.894;5.296;2023-04-24T01:55:23;32.08;;;29.27;;
22881;SDS011;11608;50.894;5.296;2023-04-24T01:57:55;33.45;;;30.33;;
22881;SDS011;11608;50.894;5.296;2023-04-24T02:00:22;34.80;;;31.60;;
22881;SDS011;11608;50.894;5.296;2023-04-24T02:02:49;33.10;;;30.10;;
22881;SDS011;11608;50.894;5.296;2023-04-24T02:05:18;35.00;;;32.28;;
22881;SDS011;11608;50.894;5.296;2023-04-24T02:07:52;33.85;;;30.88;;
22881;SDS011;11608;50.894;5.296;2023-04-24T02:10:20;34.25;;;31.25;;
22881;SDS011;11608;50.894;5.296;2023-04-24T02:12:46;34.50;;;31.17;;
22881;SDS011;11608;50.894;5.296;2023-04-24T02:15:13;33.22;;;30.30;;
22881;SDS011;11608;50.894;5.296;2023-04-24T02:17:47;32.67;;;29.33;;
22881;SDS011;11608;50.894;5.296;2023-04-24T02:20:15;33.72;;;30.73;;
22881;SDS011;11608;50.894;5.296;2023-04-24T02:22:42;35.70;;;31.95;;
22881;SDS011;11608;50.894;5.296;2023-04-24T02:25:11;34.35;;;31.45;;
22881;SDS011;11608;50.894;5.296;2023-04-24T02:27:39;34.55;;;31.63;;
22881;SDS011;11608;50.894;5.296;2023-04-24T02:30:05;34.47;;;31.10;;
22881;SDS011;11608;50.894;5.296;2023-04-24T02:32:32;34.10;;;31.23;;
22881;SDS011;11608;50.894;5.296;2023-04-24T02:34:59;32.03;;;29.05;;
22881;SDS011;11608;50.894;5.296;2023-04-24T02:37:38;32.72;;;29.60;;
22881;SDS011;11608;50.894;5.296;2023-04-24T02:40:07;34.03;;;31.02;;
22881;SDS011;11608;50.894;5.296;2023-04-24T02:42:37;36.00;;;32.75;;
22881;SDS011;11608;50.894;5.296;2023-04-24T02:45:05;34.13;;;31.30;;
22881;SDS011;11608;50.894;5.296;2023-04-24T02:47:34;33.85;;;30.67;;
22881;SDS011;11608;50.894;5.296;2023-04-24T02:50:01;33.47;;;30.67;;
22881;SDS011;11608;50.894;5.296;2023-04-24T02:52:27;33.80;;;31.08;;
22881;SDS011;11608;50.894;5.296;2023-04-24T02:54:53;33.08;;;30.42;;
22881;SDS011;11608;50.894;5.296;2023-04-24T02:57:20;34.00;;;31.10;;
22881;SDS011;11608;50.894;5.296;2023-04-24T02:59:51;34.17;;;31.42;;
22881;SDS011;11608;50.894;5.296;2023-04-24T03:02:17;34.25;;;31.45;;
22881;SDS011;11608;50.894;5.296;2023-04-24T03:04:43;34.88;;;31.98;;
22881;SDS011;11608;50.894;5.296;2023-04-24T03:07:10;34.85;;;31.80;;
22881;SDS011;11608;50.894;5.296;2023-04-24T03:09:36;31.63;;;29.10;;
22881;SDS011;11608;50.894;5.296;2023-04-24T03:12:02;32.63;;;29.80;;
22881;SDS011;11608;50.894;5.296;2023-04-24T03:14:28;33.03;;;30.17;;
22881;SDS011;11608;50.894;5.296;2023-04-24T03:16:59;33.33;;;30.23;;
22881;SDS011;11608;50.894;5.296;2023-04-24T03:19:25;32.70;;;29.83;;
22881;SDS011;11608;50.894;5.296;2023-04-24T03:21:51;31.30;;;28.58;;
22881;SDS011;11608;50.894;5.296;2023-04-24T03:24:17;32.03;;;29.33;;
22881;SDS011;11608;50.894;5.296;2023-04-24T03:26:43;32.50;;;29.50;;
22881;SDS011;11608;50.894;5.296;2023-04-24T03:29:09;32.47;;;29.60;;
22881;SDS011;11608;50.894;5.296;2023-04-24T03:31:36;33.20;;;30.40;;
22881;SDS011;11608;50.894;5.296;2023-04-24T03:34:02;33.45;;;30.65;;
22881;SDS011;11608;50.894;5.296;2023-04-24T03:36:28;31.63;;;29.10;;
22881;SDS011;11608;50.894;5.296;2023-04-24T03:38:56;33.88;;;30.95;;
22881;SDS011;11608;50.894;5.296;2023-04-24T03:41:23;32.17;;;29.48;;
22881;SDS011;11608;50.894;5.296;2023-04-24T03:43:49;30.30;;;27.70;;
22881;SDS011;11608;50.894;5.296;2023-04-24T03:46:15;32.35;;;29.60;;
22881;SDS011;11608;50.894;5.296;2023-04-24T03:48:41;35.03;;;32.08;;
22881;SDS011;11608;50.894;5.296;2023-04-24T03:51:07;31.83;;;29.27;;
22881;SDS011;11608;50.894;5.296;2023-04-24T03:53:33;31.85;;;28.85;;
22881;SDS011;11608;50.894;5.296;2023-04-24T03:56:09;30.90;;;28.35;;
22881;SDS011;11608;50.894;5.296;2023-04-24T03:58:35;33.28;;;30.33;;
22881;SDS011;11608;50.894;5.296;2023-04-24T04:01:01;31.73;;;28.85;;
22881;SDS011;11608;50.894;5.296;2023-04-24T04:03:33;31.83;;;29.15;;
22881;SDS011;11608;50.894;5.296;2023-04-24T04:05:59;30.58;;;27.98;;
22881;SDS011;11608;50.894;5.296;2023-04-24T04:08:35;31.13;;;28.52;;
22881;SDS011;11608;50.894;5.296;2023-04-24T04:11:02;31.63;;;28.63;;
22881;SDS011;11608;50.894;5.296;2023-04-24T04:13:28;31.10;;;28.45;;
22881;SDS011;11608;50.894;5.296;2023-04-24T04:15:54;32.47;;;29.52;;
22881;SDS011;11608;50.894;5.296;2023-04-24T04:18:20;32.58;;;29.45;;
22881;SDS011;11608;50.894;5.296;2023-04-24T04:20:49;30.50;;;27.85;;
22881;SDS011;11608;50.894;5.296;2023-04-24T04:23:15;31.30;;;28.70;;
22881;SDS011;11608;50.894;5.296;2023-04-24T04:25:41;30.73;;;28.17;;
22881;SDS011;11608;50.894;5.296;2023-04-24T04:28:07;31.75;;;29.10;;
22881;SDS011;11608;50.894;5.296;2023-04-24T04:30:33;32.70;;;30.00;;
22881;SDS011;11608;50.894;5.296;2023-04-24T04:32:59;31.75;;;29.15;;
22881;SDS011;11608;50.894;5.296;2023-04-24T04:35:26;31.08;;;28.38;;
22881;SDS011;11608;50.894;5.296;2023-04-24T04:37:52;31.58;;;28.92;;
22881;SDS011;11608;50.894;5.296;2023-04-24T04:40:18;29.33;;;27.02;;
22881;SDS011;11608;50.894;5.296;2023-04-24T04:42:44;29.25;;;26.90;;
22881;SDS011;11608;50.894;5.296;2023-04-24T04:45:11;29.65;;;27.35;;
22881;SDS011;11608;50.894;5.296;2023-04-24T04:47:39;30.92;;;28.42;;
22881;SDS011;11608;50.894;5.296;2023-04-24T04:50:05;29.50;;;27.17;;
22881;SDS011;11608;50.894;5.296;2023-04-24T04:52:34;31.20;;;28.50;;
22881;SDS011;11608;50.894;5.296;2023-04-24T04:55:02;31.58;;;29.02;;
22881;SDS011;11608;50.894;5.296;2023-04-24T04:57:28;31.15;;;28.67;;
22881;SDS011;11608;50.894;5.296;2023-04-24T04:59:55;29.02;;;26.83;;
22881;SDS011;11608;50.894;5.296;2023-04-24T05:02:21;29.70;;;27.55;;
22881;SDS011;11608;50.894;5.296;2023-04-24T05:04:47;29.67;;;27.25;;
22881;SDS011;11608;50.894;5.296;2023-04-24T05:09:58;28.23;;;25.83;;
22881;SDS011;11608;50.894;5.296;2023-04-24T05:12:27;29.25;;;27.00;;
22881;SDS011;11608;50.894;5.296;2023-04-24T05:20:27;30.02;;;27.83;;
22881;SDS011;11608;50.894;5.296;2023-04-24T05:22:53;28.63;;;26.42;;
22881;SDS011;11608;50.894;5.296;2023-04-24T05:25:19;29.83;;;27.40;;
22881;SDS011;11608;50.894;5.296;2023-04-24T05:27:46;29.35;;;27.15;;
22881;SDS011;11608;50.894;5.296;2023-04-24T05:30:12;30.10;;;27.83;;
22881;SDS011;11608;50.894;5.296;2023-04-24T05:32:38;29.33;;;27.10;;
22881;SDS011;11608;50.894;5.296;2023-04-24T05:35:04;28.85;;;26.55;;
22881;SDS011;11608;50.894;5.296;2023-04-24T05:37:31;28.70;;;26.35;;
22881;SDS011;11608;50.894;5.296;2023-04-24T05:39:57;27.05;;;25.02;;
22881;SDS011;11608;50.894;5.296;2023-04-24T05:42:23;26.30;;;24.50;;
22881;SDS011;11608;50.894;5.296;2023-04-24T05:44:52;26.88;;;24.98;;
22881;SDS011;11608;50.894;5.296;2023-04-24T05:47:19;26.40;;;24.40;;
22881;SDS011;11608;50.894;5.296;2023-04-24T05:49:47;26.02;;;24.00;;
22881;SDS011;11608;50.894;5.296;2023-04-24T05:52:13;25.60;;;23.83;;
22881;SDS011;11608;50.894;5.296;2023-04-24T05:54:39;25.27;;;23.38;;
22881;SDS011;11608;50.894;5.296;2023-04-24T05:57:05;25.58;;;23.63;;
22881;SDS011;11608;50.894;5.296;2023-04-24T05:59:36;26.10;;;24.13;;
22881;SDS011;11608;50.894;5.296;2023-04-24T06:02:05;26.23;;;24.40;;
22881;SDS011;11608;50.894;5.296;2023-04-24T06:04:31;25.92;;;24.02;;
22881;SDS011;11608;50.894;5.296;2023-04-24T06:06:58;27.23;;;25.23;;
22881;SDS011;11608;50.894;5.296;2023-04-24T06:09:24;27.10;;;25.20;;
22881;SDS011;11608;50.894;5.296;2023-04-24T06:11:50;26.85;;;24.95;;
22881;SDS011;11608;50.894;5.296;2023-04-24T06:14:21;26.90;;;24.90;;
22881;SDS011;11608;50.894;5.296;2023-04-24T06:16:47;27.50;;;25.25;;
22881;SDS011;11608;50.894;5.296;2023-04-24T06:19:13;26.95;;;24.98;;
22881;SDS011;11608;50.894;5.296;2023-04-24T06:21:39;27.75;;;25.55;;
22881;SDS011;11608;50.894;5.296;2023-04-24T06:24:05;28.42;;;26.33;;
22881;SDS011;11608;50.894;5.296;2023-04-24T06:26:32;28.67;;;26.27;;
22881;SDS011;11608;50.894;5.296;2023-04-24T06:28:58;27.58;;;25.42;;
22881;SDS011;11608;50.894;5.296;2023-04-24T06:31:25;28.02;;;25.73;;
22881;SDS011;11608;50.894;5.296;2023-04-24T06:33:51;29.27;;;26.83;;
22881;SDS011;11608;50.894;5.296;2023-04-24T06:36:17;27.95;;;25.85;;
22881;SDS011;11608;50.894;5.296;2023-04-24T06:38:43;27.23;;;25.02;;
22881;SDS011;11608;50.894;5.296;2023-04-24T06:41:09;27.20;;;25.10;;
22881;SDS011;11608;50.894;5.296;2023-04-24T06:43:39;27.52;;;25.42;;
22881;SDS011;11608;50.894;5.296;2023-04-24T06:46:05;27.77;;;25.58;;
22881;SDS011;11608;50.894;5.296;2023-04-24T06:48:31;28.40;;;26.38;;
22881;SDS011;11608;50.894;5.296;2023-04-24T06:50:57;28.63;;;26.13;;
22881;SDS011;11608;50.894;5.296;2023-04-24T06:53:23;28.83;;;26.27;;
22881;SDS011;11608;50.894;5.296;2023-04-24T06:55:52;26.98;;;24.88;;
22881;SDS011;11608;50.894;5.296;2023-04-24T06:58:19;28.75;;;26.27;;
22881;SDS011;11608;50.894;5.296;2023-04-24T07:00:45;28.55;;;26.38;;
22881;SDS011;11608;50.894;5.296;2023-04-24T07:03:11;28.52;;;26.00;;
22881;SDS011;11608;50.894;5.296;2023-04-24T07:05:37;27.63;;;25.15;;
22881;SDS011;11608;50.894;5.296;2023-04-24T07:08:03;27.38;;;25.27;;
22881;SDS011;11608;50.894;5.296;2023-04-24T07:10:37;28.05;;;25.83;;
22881;SDS011;11608;50.894;5.296;2023-04-24T07:13:05;29.25;;;26.70;;
22881;SDS011;11608;50.894;5.296;2023-04-24T07:15:32;29.00;;;26.55;;
22881;SDS011;11608;50.894;5.296;2023-04-24T07:17:59;29.02;;;26.63;;
22881;SDS011;11608;50.894;5.296;2023-04-24T07:20:25;28.63;;;26.42;;
22881;SDS011;11608;50.894;5.296;2023-04-24T07:22:51;28.25;;;25.98;;
22881;SDS011;11608;50.894;5.296;2023-04-24T07:25:22;30.92;;;28.27;;
22881;SDS011;11608;50.894;5.296;2023-04-24T07:27:48;29.20;;;26.88;;
22881;SDS011;11608;50.894;5.296;2023-04-24T07:30:17;30.95;;;28.23;;
22881;SDS011;11608;50.894;5.296;2023-04-24T07:32:43;30.20;;;27.70;;
22881;SDS011;11608;50.894;5.296;2023-04-24T07:35:12;31.38;;;28.77;;
22881;SDS011;11608;50.894;5.296;2023-04-24T07:37:38;31.10;;;28.38;;
22881;SDS011;11608;50.894;5.296;2023-04-24T07:40:05;30.75;;;28.05;;
22881;SDS011;11608;50.894;5.296;2023-04-24T07:42:31;30.73;;;28.13;;
22881;SDS011;11608;50.894;5.296;2023-04-24T07:44:59;31.40;;;28.52;;
22881;SDS011;11608;50.894;5.296;2023-04-24T07:47:25;31.75;;;28.92;;
22881;SDS011;11608;50.894;5.296;2023-04-24T07:49:51;33.42;;;30.42;;
22881;SDS011;11608;50.894;5.296;2023-04-24T07:52:17;32.83;;;29.95;;
22881;SDS011;11608;50.894;5.296;2023-04-24T07:54:43;32.97;;;30.08;;
22881;SDS011;11608;50.894;5.296;2023-04-24T07:57:09;34.38;;;31.48;;
22881;SDS011;11608;50.894;5.296;2023-04-24T07:59:36;33.10;;;30.10;;
22881;SDS011;11608;50.894;5.296;2023-04-24T08:02:04;33.63;;;30.45;;
22881;SDS011;11608;50.894;5.296;2023-04-24T08:04:31;33.20;;;30.30;;
22881;SDS011;11608;50.894;5.296;2023-04-24T08:07:00;32.38;;;29.23;;
22881;SDS011;11608;50.894;5.296;2023-04-24T08:09:26;32.22;;;29.40;;
22881;SDS011;11608;50.894;5.296;2023-04-24T08:11:52;33.03;;;29.75;;
22881;SDS011;11608;50.894;5.296;2023-04-24T08:14:18;32.20;;;29.45;;
22881;SDS011;11608;50.894;5.296;2023-04-24T08:16:44;31.98;;;29.02;;
22881;SDS011;11608;50.894;5.296;2023-04-24T08:19:11;33.30;;;30.08;;
22881;SDS011;11608;50.894;5.296;2023-04-24T08:21:39;33.47;;;30.20;;
22881;SDS011;11608;50.894;5.296;2023-04-24T08:24:05;33.83;;;30.60;;
22881;SDS011;11608;50.894;5.296;2023-04-24T08:26:33;31.63;;;28.63;;
22881;SDS011;11608;50.894;5.296;2023-04-24T08:28:59;31.15;;;28.27;;
22881;SDS011;11608;50.894;5.296;2023-04-24T08:31:27;30.50;;;27.75;;
22881;SDS011;11608;50.894;5.296;2023-04-24T08:33:53;31.20;;;28.25;;
22881;SDS011;11608;50.894;5.296;2023-04-24T08:36:19;30.55;;;27.35;;
22881;SDS011;11608;50.894;5.296;2023-04-24T08:38:45;30.55;;;27.77;;
22881;SDS011;11608;50.894;5.296;2023-04-24T08:41:15;29.58;;;26.88;;
22881;SDS011;11608;50.894;5.296;2023-04-24T08:43:41;29.02;;;26.45;;
22881;SDS011;11608;50.894;5.296;2023-04-24T08:46:07;31.95;;;27.50;;
22881;SDS011;11608;50.894;5.296;2023-04-24T08:48:34;30.73;;;27.27;;
22881;SDS011;11608;50.894;5.296;2023-04-24T08:51:00;35.22;;;26.65;;
22881;SDS011;11608;50.894;5.296;2023-04-24T08:53:28;32.10;;;27.70;;
22881;SDS011;11608;50.894;5.296;2023-04-24T08:55:55;35.35;;;28.25;;
22881;SDS011;11608;50.894;5.296;2023-04-24T08:58:21;34.42;;;26.27;;
22881;SDS011;11608;50.894;5.296;2023-04-24T09:00:48;31.77;;;27.00;;
22881;SDS011;11608;50.894;5.296;2023-04-24T09:03:17;29.13;;;25.70;;
22881;SDS011;11608;50.894;5.296;2023-04-24T09:05:45;31.45;;;25.88;;
22881;SDS011;11608;50.894;5.296;2023-04-24T09:08:12;30.65;;;25.80;;
22881;SDS011;11608;50.894;5.296;2023-04-24T09:10:39;27.77;;;24.73;;
22881;SDS011;11608;50.894;5.296;2023-04-24T09:13:05;27.83;;;25.40;;
22881;SDS011;11608;50.894;5.296;2023-04-24T09:15:34;27.75;;;25.08;;
22881;SDS011;11608;50.894;5.296;2023-04-24T09:18:00;27.20;;;24.88;;
22881;SDS011;11608;50.894;5.296;2023-04-24T09:20:26;28.10;;;25.33;;
22881;SDS011;11608;50.894;5.296;2023-04-24T09:22:56;28.25;;;25.45;;
22881;SDS011;11608;50.894;5.296;2023-04-24T09:25:24;28.20;;;25.20;;
22881;SDS011;11608;50.894;5.296;2023-04-24T09:27:53;29.17;;;26.27;;
22881;SDS011;11608;50.894;5.296;2023-04-24T09:30:23;28.75;;;25.73;;
22881;SDS011;11608;50.894;5.296;2023-04-24T09:32:49;29.05;;;26.33;;
22881;SDS011;11608;50.894;5.296;2023-04-24T09:35:15;29.63;;;26.77;;
22881;SDS011;11608;50.894;5.296;2023-04-24T09:37:42;31.63;;;27.92;;
22881;SDS011;11608;50.894;5.296;2023-04-24T09:40:12;28.85;;;25.90;;
22881;SDS011;11608;50.894;5.296;2023-04-24T09:42:39;29.00;;;26.13;;
22881;SDS011;11608;50.894;5.296;2023-04-24T09:45:09;28.77;;;25.83;;
22881;SDS011;11608;50.894;5.296;2023-04-24T09:47:39;28.38;;;25.52;;
22881;SDS011;11608;50.894;5.296;2023-04-24T09:50:09;28.95;;;26.42;;
22881;SDS011;11608;50.894;5.296;2023-04-24T09:52:35;29.23;;;26.48;;
22881;SDS011;11608;50.894;5.296;2023-04-24T09:55:01;28.48;;;25.58;;
22881;SDS011;11608;50.894;5.296;2023-04-24T09:57:27;28.65;;;25.95;;
22881;SDS011;11608;50.894;5.296;2023-04-24T09:59:53;28.50;;;25.58;;
22881;SDS011;11608;50.894;5.296;2023-04-24T10:02:19;28.83;;;26.02;;
22881;SDS011;11608;50.894;5.296;2023-04-24T10:04:56;27.50;;;24.75;;
22881;SDS011;11608;50.894;5.296;2023-04-24T10:07:25;28.23;;;25.42;;
22881;SDS011;11608;50.894;5.296;2023-04-24T10:09:51;28.52;;;26.02;;
22881;SDS011;11608;50.894;5.296;2023-04-24T10:12:17;30.42;;;27.55;;
22881;SDS011;11608;50.894;5.296;2023-04-24T10:14:44;29.33;;;26.50;;
22881;SDS011;11608;50.894;5.296;2023-04-24T10:17:10;28.58;;;25.83;;
22881;SDS011;11608;50.894;5.296;2023-04-24T10:19:37;27.67;;;25.27;;
22881;SDS011;11608;50.894;5.296;2023-04-24T10:22:03;26.13;;;23.83;;
22881;SDS011;11608;50.894;5.296;2023-04-24T10:24:29;26.85;;;24.60;;
22881;SDS011;11608;50.894;5.296;2023-04-24T10:26:57;26.38;;;23.95;;
22881;SDS011;11608;50.894;5.296;2023-04-24T10:29:23;26.30;;;24.00;;
22881;SDS011;11608;50.894;5.296;2023-04-24T10:31:50;26.52;;;24.08;;
22881;SDS011;11608;50.894;5.296;2023-04-24T10:34:16;26.83;;;24.73;;
22881;SDS011;11608;50.894;5.296;2023-04-24T10:36:46;27.15;;;24.52;;
22881;SDS011;11608;50.894;5.296;2023-04-24T10:39:13;27.33;;;24.70;;
22881;SDS011;11608;50.894;5.296;2023-04-24T10:41:40;27.02;;;24.80;;
22881;SDS011;11608;50.894;5.296;2023-04-24T10:44:07;28.42;;;26.05;;
22881;SDS011;11608;50.894;5.296;2023-04-24T10:46:33;27.45;;;25.08;;
22881;SDS011;11608;50.894;5.296;2023-04-24T10:49:00;27.35;;;25.15;;
22881;SDS011;11608;50.894;5.296;2023-04-24T10:54:27;27.40;;;25.10;;
22881;SDS011;11608;50.894;5.296;2023-04-24T10:57:25;27.80;;;25.23;;
22881;SDS011;11608;50.894;5.296;2023-04-24T10:59:39;28.05;;;25.48;;
22881;SDS011;11608;50.894;5.296;2023-04-24T11:02:07;28.17;;;25.70;;
22881;SDS011;11608;50.894;5.296;2023-04-24T11:04:35;26.83;;;24.70;;
22881;SDS011;11608;50.894;5.296;2023-04-24T11:07:04;27.65;;;25.45;;
22881;SDS011;11608;50.894;5.296;2023-04-24T11:09:31;26.92;;;24.40;;
22881;SDS011;11608;50.894;5.296;2023-04-24T11:12:07;25.88;;;23.77;;
22881;SDS011;11608;50.894;5.296;2023-04-24T11:17:32;25.58;;;22.95;;
22881;SDS011;11608;50.894;5.296;2023-04-24T11:20:02;24.90;;;22.98;;
22881;SDS011;11608;50.894;5.296;2023-04-24T11:22:30;25.65;;;23.48;;
22881;SDS011;11608;50.894;5.296;2023-04-24T11:24:59;26.23;;;23.88;;
22881;SDS011;11608;50.894;5.296;2023-04-24T11:27:30;24.90;;;22.88;;
22881;SDS011;11608;50.894;5.296;2023-04-24T11:34:51;26.30;;;24.05;;
22881;SDS011;11608;50.894;5.296;2023-04-24T11:37:18;24.88;;;22.77;;
22881;SDS011;11608;50.894;5.296;2023-04-24T11:39:44;25.13;;;22.77;;
22881;SDS011;11608;50.894;5.296;2023-04-24T11:42:13;25.85;;;23.42;;
22881;SDS011;11608;50.894;5.296;2023-04-24T11:44:40;24.77;;;22.65;;
22881;SDS011;11608;50.894;5.296;2023-04-24T11:47:06;26.20;;;23.92;;
22881;SDS011;11608;50.894;5.296;2023-04-24T11:49:33;25.25;;;23.35;;
22881;SDS011;11608;50.894;5.296;2023-04-24T11:52:02;25.05;;;22.85;;
22881;SDS011;11608;50.894;5.296;2023-04-24T11:54:28;24.15;;;22.27;;
22881;SDS011;11608;50.894;5.296;2023-04-24T11:56:55;23.88;;;22.17;;
22881;SDS011;11608;50.894;5.296;2023-04-24T11:59:21;24.60;;;22.60;;
22881;SDS011;11608;50.894;5.296;2023-04-24T12:01:48;24.08;;;21.95;;
22881;SDS011;11608;50.894;5.296;2023-04-24T12:04:15;24.35;;;22.08;;
22881;SDS011;11608;50.894;5.296;2023-04-24T12:07:00;23.40;;;21.50;;
22881;SDS011;11608;50.894;5.296;2023-04-24T12:09:26;24.55;;;22.25;;
22881;SDS011;11608;50.894;5.296;2023-04-24T12:11:55;23.63;;;21.50;;
22881;SDS011;11608;50.894;5.296;2023-04-24T12:14:24;23.25;;;21.25;;
22881;SDS011;11608;50.894;5.296;2023-04-24T12:16:50;23.48;;;21.33;;
22881;SDS011;11608;50.894;5.296;2023-04-24T12:19:21;23.08;;;21.17;;
22881;SDS011;11608;50.894;5.296;2023-04-24T12:22:06;23.40;;;21.50;;
22881;SDS011;11608;50.894;5.296;2023-04-24T12:24:32;23.67;;;21.52;;
22881;SDS011;11608;50.894;5.296;2023-04-24T12:26:58;24.00;;;22.05;;
22881;SDS011;11608;50.894;5.296;2023-04-24T12:29:26;25.27;;;22.75;;
22881;SDS011;11608;50.894;5.296;2023-04-24T12:31:52;24.60;;;22.40;;
22881;SDS011;11608;50.894;5.296;2023-04-24T12:34:19;24.20;;;22.10;;
22881;SDS011;11608;50.894;5.296;2023-04-24T12:36:45;23.35;;;21.40;;
22881;SDS011;11608;50.894;5.296;2023-04-24T12:39:18;23.73;;;21.63;;
22881;SDS011;11608;50.894;5.296;2023-04-24T12:41:54;24.02;;;22.08;;
22881;SDS011;11608;50.894;5.296;2023-04-24T12:44:28;23.58;;;21.60;;
22881;SDS011;11608;50.894;5.296;2023-04-24T12:46:55;23.13;;;21.13;;
22881;SDS011;11608;50.894;5.296;2023-04-24T12:49:21;22.65;;;20.65;;
22881;SDS011;11608;50.894;5.296;2023-04-24T12:51:47;22.25;;;20.33;;
22881;SDS011;11608;50.894;5.296;2023-04-24T12:54:13;23.10;;;21.20;;
22881;SDS011;11608;50.894;5.296;2023-04-24T12:56:39;24.17;;;21.88;;
22881;SDS011;11608;50.894;5.296;2023-04-24T12:59:05;23.20;;;21.33;;
22881;SDS011;11608;50.894;5.296;2023-04-24T13:01:31;24.48;;;22.38;;
22881;SDS011;11608;50.894;5.296;2023-04-24T13:03:58;22.95;;;21.05;;
22881;SDS011;11608;50.894;5.296;2023-04-24T13:06:24;23.63;;;21.73;;
22881;SDS011;11608;50.894;5.296;2023-04-24T13:08:51;23.85;;;21.95;;
22881;SDS011;11608;50.894;5.296;2023-04-24T13:11:17;23.85;;;21.75;;
22881;SDS011;11608;50.894;5.296;2023-04-24T13:13:43;24.27;;;22.25;;
22881;SDS011;11608;50.894;5.296;2023-04-24T13:16:09;23.00;;;21.05;;
22881;SDS011;11608;50.894;5.296;2023-04-24T13:18:36;23.85;;;21.95;;
22881;SDS011;11608;50.894;5.296;2023-04-24T13:21:02;22.83;;;20.92;;
22881;SDS011;11608;50.894;5.296;2023-04-24T13:23:28;23.40;;;20.98;;
22881;SDS011;11608;50.894;5.296;2023-04-24T13:25:54;22.73;;;20.83;;
22881;SDS011;11608;50.894;5.296;2023-04-24T13:28:23;23.70;;;21.60;;
22881;SDS011;11608;50.894;5.296;2023-04-24T13:30:50;22.85;;;21.15;;
22881;SDS011;11608;50.894;5.296;2023-04-24T13:33:16;23.73;;;21.90;;
22881;SDS011;11608;50.894;5.296;2023-04-24T13:35:42;23.85;;;21.85;;
22881;SDS011;11608;50.894;5.296;2023-04-24T13:38:08;23.27;;;21.17;;
22881;SDS011;11608;50.894;5.296;2023-04-24T13:40:34;24.15;;;22.00;;
22881;SDS011;11608;50.894;5.296;2023-04-24T13:43:00;24.25;;;21.83;;
22881;SDS011;11608;50.894;5.296;2023-04-24T13:45:27;23.73;;;21.73;;
22881;SDS011;11608;50.894;5.296;2023-04-24T13:47:53;22.60;;;20.70;;
22881;SDS011;11608;50.894;5.296;2023-04-24T13:50:19;23.40;;;21.30;;
22881;SDS011;11608;50.894;5.296;2023-04-24T13:52:45;22.67;;;20.88;;
22881;SDS011;11608;50.894;5.296;2023-04-24T13:55:11;23.95;;;21.85;;
22881;SDS011;11608;50.894;5.296;2023-04-24T13:57:37;23.52;;;21.52;;
22881;SDS011;11608;50.894;5.296;2023-04-24T14:00:03;22.90;;;21.02;;
22881;SDS011;11608;50.894;5.296;2023-04-24T14:02:32;22.65;;;20.65;;
22881;SDS011;11608;50.894;5.296;2023-04-24T14:04:58;23.88;;;21.88;;
22881;SDS011;11608;50.894;5.296;2023-04-24T14:07:25;22.77;;;20.67;;
22881;SDS011;11608;50.894;5.296;2023-04-24T14:09:51;22.27;;;20.58;;
22881;SDS011;11608;50.894;5.296;2023-04-24T14:12:17;22.92;;;20.95;;
22881;SDS011;11608;50.894;5.296;2023-04-24T14:14:45;21.98;;;20.02;;
22881;SDS011;11608;50.894;5.296;2023-04-24T14:17:12;23.67;;;21.52;;
22881;SDS011;11608;50.894;5.296;2023-04-24T14:19:38;23.27;;;21.42;;
22881;SDS011;11608;50.894;5.296;2023-04-24T14:22:04;23.25;;;21.15;;
22881;SDS011;11608;50.894;5.296;2023-04-24T14:24:30;23.05;;;20.95;;
22881;SDS011;11608;50.894;5.296;2023-04-24T14:26:56;22.38;;;20.17;;
22881;SDS011;11608;50.894;5.296;2023-04-24T14:29:23;23.10;;;21.27;;
22881;SDS011;11608;50.894;5.296;2023-04-24T14:31:50;23.58;;;21.38;;
22881;SDS011;11608;50.894;5.296;2023-04-24T14:34:16;23.15;;;21.05;;
22881;SDS011;11608;50.894;5.296;2023-04-24T14:36:43;23.33;;;21.25;;
22881;SDS011;11608;50.894;5.296;2023-04-24T14:39:09;23.80;;;21.83;;
22881;SDS011;11608;50.894;5.296;2023-04-24T14:41:35;22.35;;;20.60;;
22881;SDS011;11608;50.894;5.296;2023-04-24T14:44:02;23.55;;;21.33;;
22881;SDS011;11608;50.894;5.296;2023-04-24T14:46:29;23.60;;;21.50;;
22881;SDS011;11608;50.894;5.296;2023-04-24T14:48:56;22.42;;;20.52;;
22881;SDS011;11608;50.894;5.296;2023-04-24T14:51:22;23.23;;;21.00;;
22881;SDS011;11608;50.894;5.296;2023-04-24T14:53:48;22.95;;;21.15;;
22881;SDS011;11608;50.894;5.296;2023-04-24T14:56:14;24.00;;;21.77;;
22881;SDS011;11608;50.894;5.296;2023-04-24T14:58:41;24.60;;;22.70;;
22881;SDS011;11608;50.894;5.296;2023-04-24T15:01:07;23.90;;;22.20;;
22881;SDS011;11608;50.894;5.296;2023-04-24T15:03:33;24.52;;;22.42;;
22881;SDS011;11608;50.894;5.296;2023-04-24T15:05:59;24.15;;;22.42;;
22881;SDS011;11608;50.894;5.296;2023-04-24T15:08:26;24.85;;;22.95;;